Time;durP1;ratioP1;P1;durP2;ratioP2;P2;SDS_P1;SDS_P2;PMS_P1;PMS_P2;Temp;Humidity;BMP_temperature;BMP_pressure;BME280_temperature;BME280_humidity;BME280_pressure;Samples;Min_cycle;Max_cycle;Signal;HPM_P1;HPM_P2
2023/07/13 00:01:53;;;;;;;4.97;2.60;;;15.90;99.90;;;;;;5011566;28;20307;-81
2023/07/13 00:04:24;;;;;;;8.00;2.97;;;15.80;99.90;;;;;;5012255;28;20258;-81
2023/07/13 00:06:51;;;;;;;6.77;2.80;;;15.80;99.90;;;;;;5012654;28;20239;-81
2023/07/13 00:09:19;;;;;;;5.33;2.50;;;15.80;99.90;;;;;;5013025;28;20279;-81
2023/07/13 00:11:52;;;;;;;5.53;2.30;;;15.80;99.90;;;;;;4995802;28;20256;-81
2023/07/13 00:14:18;;;;;;;4.83;2.77;;;15.70;99.90;;;;;;5015585;28;20243;-81
2023/07/13 00:16:45;;;;;;;4.30;2.20;;;15.70;99.90;;;;;;5017078;28;20231;-82
2023/07/13 00:19:13;;;;;;;10.40;3.20;;;15.60;99.90;;;;;;5016767;28;20256;-81
2023/07/13 00:21:40;;;;;;;10.50;2.63;;;15.60;99.90;;;;;;5016632;28;20275;-82
2023/07/13 00:24:08;;;;;;;4.77;2.50;;;15.50;99.90;;;;;;5015753;28;20224;-81
2023/07/13 00:26:35;;;;;;;8.83;2.70;;;15.50;99.90;;;;;;5018968;28;20231;-82
2023/07/13 00:29:06;;;;;;;9.17;3.17;;;15.50;99.90;;;;;;4999474;28;20229;-82
2023/07/13 00:31:33;;;;;;;7.80;2.60;;;15.40;99.90;;;;;;5016527;28;20337;-82
2023/07/13 00:34:00;;;;;;;5.47;2.57;;;15.30;99.90;;;;;;5016722;28;20731;-82
2023/07/13 00:36:27;;;;;;;6.63;2.40;;;15.20;99.90;;;;;;4997764;28;20251;-81
2023/07/13 00:38:54;;;;;;;7.10;2.60;;;15.10;99.90;;;;;;5014099;28;20721;-81
2023/07/13 00:41:21;;;;;;;6.37;3.13;;;15.10;99.90;;;;;;4996603;28;20298;-81
2023/07/13 00:43:49;;;;;;;8.50;2.67;;;15.00;99.90;;;;;;4997472;28;20248;-81
2023/07/13 00:46:24;;;;;;;8.50;3.00;;;14.90;99.90;;;;;;4997250;28;20271;-81
2023/07/13 00:48:53;;;;;;;7.30;2.80;;;14.90;99.90;;;;;;5014950;28;20917;-81
2023/07/13 00:51:25;;;;;;;3.73;2.30;;;14.80;99.90;;;;;;5013168;28;20317;-81
2023/07/13 00:53:53;;;;;;;5.33;2.60;;;14.70;99.90;;;;;;4997827;28;20260;-81
2023/07/13 00:56:20;;;;;;;8.67;2.63;;;14.70;99.90;;;;;;5014903;28;20238;-81
2023/07/13 00:58:47;;;;;;;3.53;1.97;;;14.60;99.90;;;;;;5014466;28;20240;-81
2023/07/13 01:01:15;;;;;;;3.57;2.30;;;14.50;99.90;;;;;;5014798;28;20237;-81
2023/07/13 01:03:43;;;;;;;5.47;2.30;;;14.50;99.90;;;;;;5013676;28;20227;-81
2023/07/13 01:06:10;;;;;;;4.37;2.80;;;14.40;99.90;;;;;;4996675;28;20920;-81
2023/07/13 01:08:37;;;;;;;5.67;2.67;;;14.40;99.90;;;;;;4997493;28;20227;-80
2023/07/13 01:11:04;;;;;;;3.93;2.27;;;14.40;99.90;;;;;;4997687;28;20285;-80
2023/07/13 01:13:31;;;;;;;6.60;2.67;;;14.30;99.90;;;;;;4997865;28;20252;-80
2023/07/13 01:16:02;;;;;;;6.97;2.20;;;14.20;99.90;;;;;;5016130;28;20253;-81
2023/07/13 01:18:30;;;;;;;4.37;2.47;;;14.20;99.90;;;;;;4977661;28;20331;-81
2023/07/13 01:21:00;;;;;;;11.43;3.10;;;14.20;99.90;;;;;;4996503;28;20266;-81
2023/07/13 01:23:27;;;;;;;7.27;2.60;;;14.10;99.90;;;;;;4978712;28;20243;-81
2023/07/13 01:25:56;;;;;;;5.10;3.03;;;14.10;99.90;;;;;;4977819;28;20299;-81
2023/07/13 01:28:26;;;;;;;6.30;2.63;;;14.00;99.90;;;;;;4994665;28;20229;-80
2023/07/13 01:30:54;;;;;;;5.23;3.23;;;14.00;99.90;;;;;;4994343;28;20232;-81
2023/07/13 01:33:22;;;;;;;7.60;3.17;;;14.00;99.90;;;;;;4994973;28;20320;-81
2023/07/13 01:35:50;;;;;;;8.73;2.60;;;13.90;99.90;;;;;;4978219;28;20226;-81
2023/07/13 01:38:23;;;;;;;7.40;2.83;;;13.90;99.90;;;;;;4995566;28;20892;-81
2023/07/13 01:40:51;;;;;;;6.03;2.90;;;13.80;99.90;;;;;;4996036;28;20268;-81
2023/07/13 01:43:18;;;;;;;4.90;2.40;;;13.80;99.90;;;;;;4978701;28;20237;-80
2023/07/13 01:45:45;;;;;;;5.10;2.80;;;13.80;99.90;;;;;;4995851;28;20240;-79
2023/07/13 01:48:13;;;;;;;5.00;2.80;;;13.80;99.90;;;;;;4995888;28;20319;-78
2023/07/13 01:50:42;;;;;;;5.33;2.93;;;13.70;99.90;;;;;;4994201;28;20323;-78
2023/07/13 01:53:09;;;;;;;6.47;2.97;;;13.70;99.90;;;;;;4992888;28;20579;-78
2023/07/13 01:55:37;;;;;;;6.07;2.93;;;13.60;99.90;;;;;;4993253;28;20235;-78
2023/07/13 01:58:04;;;;;;;5.03;3.00;;;13.60;99.90;;;;;;4992241;28;20232;-78
2023/07/13 02:00:32;;;;;;;5.57;2.83;;;13.60;99.90;;;;;;5011837;28;20252;-79
2023/07/13 02:02:59;;;;;;;5.17;2.80;;;13.50;99.90;;;;;;4994245;28;20239;-79
2023/07/13 02:05:26;;;;;;;3.47;2.57;;;13.50;99.90;;;;;;4993843;28;20570;-79
2023/07/13 02:07:53;;;;;;;6.77;3.47;;;13.50;99.90;;;;;;4995506;28;20300;-79
2023/07/13 02:10:20;;;;;;;7.57;3.07;;;13.50;99.90;;;;;;4994574;28;20604;-79
2023/07/13 02:12:50;;;;;;;4.30;3.30;;;13.40;99.90;;;;;;4995259;28;20229;-79
2023/07/13 02:15:17;;;;;;;6.47;3.50;;;13.40;99.90;;;;;;4993655;28;20223;-79
2023/07/13 02:17:44;;;;;;;6.53;3.40;;;13.40;99.90;;;;;;4992901;28;20228;-80
2023/07/13 02:20:11;;;;;;;9.73;3.90;;;13.50;99.90;;;;;;4994330;28;20234;-80
2023/07/13 02:22:38;;;;;;;8.43;3.93;;;13.40;99.90;;;;;;5013936;28;20232;-80
2023/07/13 02:25:05;;;;;;;7.03;4.30;;;13.40;99.90;;;;;;5030497;28;20230;-80
2023/07/13 02:27:32;;;;;;;9.60;4.00;;;13.30;99.90;;;;;;5014522;28;20238;-81
2023/07/13 02:30:00;;;;;;;7.60;4.07;;;13.30;99.90;;;;;;5013946;28;20312;-80
2023/07/13 02:32:27;;;;;;;6.63;4.87;;;13.40;99.90;;;;;;5032123;28;20225;-81
2023/07/13 02:34:54;;;;;;;4.77;3.73;;;13.30;99.90;;;;;;5032467;28;20605;-81
2023/07/13 02:37:21;;;;;;;8.67;4.73;;;13.30;99.90;;;;;;5002629;28;20327;-82
2023/07/13 02:39:48;;;;;;;5.83;4.30;;;13.30;99.90;;;;;;4998208;28;20223;-81
2023/07/13 02:42:15;;;;;;;6.13;4.53;;;13.40;99.90;;;;;;5012766;28;20228;-80
2023/07/13 02:44:43;;;;;;;8.43;5.30;;;13.30;99.90;;;;;;4994417;28;20596;-80
2023/07/13 02:47:12;;;;;;;8.33;4.70;;;13.30;99.90;;;;;;5012099;28;20230;-80
2023/07/13 02:49:39;;;;;;;6.73;5.13;;;13.30;99.90;;;;;;4995448;28;20699;-79
2023/07/13 02:52:07;;;;;;;7.27;5.10;;;13.30;99.90;;;;;;4997051;28;20601;-79
2023/07/13 02:54:33;;;;;;;8.60;5.10;;;13.30;99.90;;;;;;4995836;28;20222;-79
2023/07/13 02:57:00;;;;;;;10.23;5.03;;;13.40;99.90;;;;;;5016809;28;20273;-79
2023/07/13 02:59:27;;;;;;;6.33;5.30;;;13.30;99.90;;;;;;4992679;28;20231;-78
2023/07/13 03:01:54;;;;;;;8.23;5.00;;;13.30;99.90;;;;;;5007222;28;20252;-79
2023/07/13 03:04:23;;;;;;;9.23;5.67;;;13.40;99.90;;;;;;4993506;28;20251;-78
2023/07/13 03:06:50;;;;;;;7.87;5.20;;;13.30;99.90;;;;;;5009104;28;20222;-77
2023/07/13 03:09:17;;;;;;;6.17;5.57;;;13.30;99.90;;;;;;4990625;28;20218;-78
2023/07/13 03:11:49;;;;;;;6.40;5.50;;;13.30;99.90;;;;;;4988773;28;20222;-77
2023/07/13 03:14:24;;;;;;;8.67;5.53;;;13.30;99.90;;;;;;4993220;28;20235;-77
2023/07/13 03:16:51;;;;;;;7.47;5.60;;;13.40;99.90;;;;;;4989142;28;20224;-78
2023/07/13 03:19:19;;;;;;;6.83;4.70;;;13.30;99.90;;;;;;4987169;28;20237;-78
2023/07/13 03:21:51;;;;;;;7.17;5.23;;;13.40;99.90;;;;;;5003198;28;20219;-77
2023/07/13 03:24:18;;;;;;;6.70;5.30;;;13.30;99.90;;;;;;4988414;28;20218;-78
2023/07/13 03:26:45;;;;;;;7.07;5.30;;;13.30;99.90;;;;;;4992440;28;20651;-78
2023/07/13 03:29:11;;;;;;;7.17;5.30;;;13.30;99.90;;;;;;4987546;28;20221;-78
2023/07/13 03:31:39;;;;;;;5.97;5.23;;;13.30;99.90;;;;;;4981482;28;20326;-77
2023/07/13 03:34:06;;;;;;;8.90;5.10;;;13.30;99.90;;;;;;5022806;28;20732;-77
2023/07/13 03:36:33;;;;;;;8.13;5.80;;;13.30;99.90;;;;;;4998075;28;20301;-78
2023/07/13 03:39:08;;;;;;;6.67;5.23;;;13.30;99.90;;;;;;5003881;28;20657;-78
2023/07/13 03:41:48;;;;;;;8.27;5.10;;;13.30;99.90;;;;;;4990887;28;20259;-79
2023/07/13 03:44:16;;;;;;;8.03;5.27;;;13.30;99.90;;;;;;4990215;28;20232;-79
2023/07/13 03:46:43;;;;;;;8.90;5.70;;;13.30;99.90;;;;;;4992005;28;20239;-79
2023/07/13 03:49:10;;;;;;;7.73;4.60;;;13.30;99.90;;;;;;4990305;28;20312;-79
2023/07/13 03:51:37;;;;;;;7.00;5.73;;;13.20;99.90;;;;;;4985693;28;20313;-79
2023/07/13 03:54:06;;;;;;;7.57;5.03;;;13.20;99.90;;;;;;4992105;28;20222;-80
2023/07/13 03:56:33;;;;;;;8.03;5.50;;;13.20;99.90;;;;;;5007307;28;20341;-79
2023/07/13 03:59:02;;;;;;;6.20;5.30;;;13.20;99.90;;;;;;4992326;28;20230;-80
2023/07/13 04:01:29;;;;;;;6.47;4.90;;;13.20;99.90;;;;;;4990538;28;20238;-80
2023/07/13 04:03:56;;;;;;;7.37;5.40;;;13.20;99.90;;;;;;5007464;28;20740;-80
2023/07/13 04:06:28;;;;;;;7.03;4.93;;;13.30;99.90;;;;;;5010279;28;20230;-80
2023/07/13 04:08:57;;;;;;;9.53;5.40;;;13.30;99.90;;;;;;4991328;28;20352;-80
2023/07/13 04:11:28;;;;;;;6.80;5.47;;;13.20;99.90;;;;;;4991647;28;20242;-80
2023/07/13 04:13:56;;;;;;;7.43;5.00;;;13.30;99.90;;;;;;4989070;28;20934;-80
2023/07/13 04:16:22;;;;;;;9.37;5.20;;;13.30;99.90;;;;;;5005155;28;20304;-80
2023/07/13 04:18:49;;;;;;;6.70;4.73;;;13.40;99.90;;;;;;5008683;28;20237;-80
2023/07/13 04:21:17;;;;;;;7.60;4.60;;;13.40;99.90;;;;;;5007701;28;20330;-79
2023/07/13 04:23:44;;;;;;;8.63;5.03;;;13.40;99.90;;;;;;4991986;28;20311;-81
2023/07/13 04:26:11;;;;;;;8.50;4.97;;;13.40;99.90;;;;;;5012081;28;20220;-80
2023/07/13 04:28:39;;;;;;;6.97;4.93;;;13.50;99.90;;;;;;5017675;28;20726;-81
2023/07/13 04:31:06;;;;;;;8.60;5.63;;;13.50;99.90;;;;;;5014541;28;20291;-80
2023/07/13 04:33:34;;;;;;;9.57;5.70;;;13.50;99.90;;;;;;5016805;28;20241;-80
2023/07/13 04:36:01;;;;;;;8.93;5.30;;;13.50;99.90;;;;;;5003148;28;20275;-80
2023/07/13 04:38:30;;;;;;;10.13;5.67;;;13.60;99.90;;;;;;5005566;28;20743;-81
2023/07/13 04:41:00;;;;;;;6.60;4.70;;;13.60;99.90;;;;;;4982518;28;20279;-77
2023/07/13 04:43:27;;;;;;;7.83;5.27;;;13.60;99.90;;;;;;5008001;28;20805;-79
2023/07/13 04:45:56;;;;;;;9.47;5.57;;;13.60;99.90;;;;;;5000441;28;20227;-80
2023/07/13 04:48:23;;;;;;;10.33;5.17;;;13.60;99.90;;;;;;5005295;28;20251;-80
2023/07/13 04:50:56;;;;;;;5.20;4.70;;;13.60;99.90;;;;;;5006712;28;20659;-80
2023/07/13 04:53:23;;;;;;;8.40;5.17;;;13.70;99.90;;;;;;4988020;28;20328;-79
2023/07/13 04:55:50;;;;;;;8.27;4.80;;;13.70;99.90;;;;;;4989919;28;20289;-80
2023/07/13 04:58:17;;;;;;;6.90;5.47;;;13.70;99.90;;;;;;5003783;28;20373;-79
2023/07/13 05:00:45;;;;;;;9.23;5.50;;;13.80;99.90;;;;;;4999233;28;20697;-79
2023/07/13 05:03:13;;;;;;;5.07;4.30;;;13.80;99.90;;;;;;5013681;28;20223;-79
2023/07/13 05:05:40;;;;;;;6.73;5.50;;;13.90;99.90;;;;;;5012781;28;20243;-79
2023/07/13 05:08:07;;;;;;;5.83;4.70;;;13.90;99.90;;;;;;4990125;28;20726;-81
2023/07/13 05:10:34;;;;;;;9.17;5.60;;;14.00;99.90;;;;;;5005528;28;20326;-80
2023/07/13 05:13:01;;;;;;;9.27;5.47;;;14.00;99.90;;;;;;4991406;28;20215;-80
2023/07/13 05:15:28;;;;;;;9.47;5.43;;;14.10;99.90;;;;;;5000960;28;20294;-80
2023/07/13 05:17:55;;;;;;;11.27;5.10;;;14.10;99.90;;;;;;4990142;28;20223;-80
2023/07/13 05:20:24;;;;;;;7.37;4.50;;;14.20;99.90;;;;;;5009241;28;20343;-79
2023/07/13 05:22:50;;;;;;;8.03;4.70;;;14.30;99.90;;;;;;5008632;28;20310;-80
2023/07/13 05:25:18;;;;;;;7.57;4.67;;;14.30;99.90;;;;;;5014076;28;20313;-80
2023/07/13 05:27:46;;;;;;;5.60;4.50;;;14.40;99.90;;;;;;4998037;28;20226;-81
2023/07/13 05:30:14;;;;;;;9.33;5.20;;;14.50;99.90;;;;;;5013231;28;20256;-80
2023/07/13 05:32:41;;;;;;;7.63;4.90;;;14.50;99.90;;;;;;5021109;28;20229;-81
2023/07/13 05:35:08;;;;;;;10.50;4.53;;;14.50;99.90;;;;;;5014853;28;20215;-81
2023/07/13 05:37:38;;;;;;;8.60;4.50;;;14.60;99.90;;;;;;4998953;28;20231;-81
2023/07/13 05:40:06;;;;;;;10.43;5.03;;;14.70;99.90;;;;;;5011399;28;20219;-81
2023/07/13 05:42:33;;;;;;;11.80;4.80;;;14.90;99.90;;;;;;5014590;28;20247;-80
2023/07/13 05:45:00;;;;;;;13.80;4.50;;;15.00;99.90;;;;;;4997890;28;20228;-81
2023/07/13 05:47:27;;;;;;;8.60;4.43;;;15.10;99.90;;;;;;5013757;28;20237;-81
2023/07/13 05:49:54;;;;;;;10.23;4.53;;;15.30;99.90;;;;;;5013924;28;20237;-81
2023/07/13 05:52:21;;;;;;;14.33;4.83;;;15.50;99.90;;;;;;5013118;28;20231;-80
2023/07/13 05:54:49;;;;;;;8.50;4.40;;;15.70;99.90;;;;;;5023469;28;20236;-81
2023/07/13 05:57:15;;;;;;;10.47;4.30;;;15.90;99.90;;;;;;5023121;28;20233;-80
2023/07/13 05:59:42;;;;;;;10.23;4.10;;;16.10;99.90;;;;;;5023424;28;20232;-80
2023/07/13 06:02:10;;;;;;;10.10;3.37;;;16.30;99.90;;;;;;4982945;28;20256;-80
2023/07/13 06:04:37;;;;;;;9.53;3.93;;;16.40;99.90;;;;;;4997656;28;20241;-80
2023/07/13 06:07:03;;;;;;;8.87;3.70;;;16.60;99.90;;;;;;5001568;28;20223;-80
2023/07/13 06:09:30;;;;;;;10.60;3.80;;;16.70;99.90;;;;;;5013532;28;20229;-80
2023/07/13 06:11:58;;;;;;;9.80;3.87;;;16.80;99.90;;;;;;5020972;28;20238;-81
2023/07/13 06:14:26;;;;;;;11.70;4.17;;;16.90;99.90;;;;;;4999388;28;20775;-81
2023/07/13 06:16:52;;;;;;;13.53;4.00;;;16.90;99.90;;;;;;5001991;28;20295;-81
2023/07/13 06:19:19;;;;;;;8.10;4.10;;;17.00;99.90;;;;;;5001625;28;20209;-81
2023/07/13 06:21:46;;;;;;;10.50;3.87;;;17.10;99.90;;;;;;5017693;28;20676;-81
2023/07/13 06:24:12;;;;;;;11.27;4.20;;;17.20;99.90;;;;;;4999911;28;20743;-81
2023/07/13 06:26:39;;;;;;;8.83;4.23;;;17.40;99.90;;;;;;5022362;28;20339;-80
2023/07/13 06:29:07;;;;;;;11.80;3.80;;;17.50;99.90;;;;;;5016448;28;20224;-80
2023/07/13 06:31:34;;;;;;;11.43;3.70;;;17.50;99.90;;;;;;4997252;28;20257;-80
2023/07/13 06:34:01;;;;;;;9.60;4.10;;;17.60;99.90;;;;;;5000860;28;20272;-81
2023/07/13 06:36:28;;;;;;;9.17;3.10;;;17.70;99.90;;;;;;4997931;28;20239;-81
2023/07/13 06:38:55;;;;;;;12.57;3.53;;;17.80;99.90;;;;;;4998312;28;20735;-81
2023/07/13 06:41:22;;;;;;;8.13;2.80;;;17.90;99.90;;;;;;4998207;28;20229;-80
2023/07/13 06:43:48;;;;;;;9.30;3.33;;;18.00;99.90;;;;;;5015785;28;20260;-81
2023/07/13 06:46:16;;;;;;;10.10;3.37;;;18.10;99.90;;;;;;5000803;28;20544;-81
2023/07/13 06:48:43;;;;;;;12.03;3.23;;;18.20;99.90;;;;;;5014373;28;20316;-80
2023/07/13 06:51:10;;;;;;;10.53;2.93;;;18.30;99.90;;;;;;4997892;28;20229;-81
2023/07/13 06:53:36;;;;;;;8.13;3.10;;;18.30;99.90;;;;;;4997405;28;20235;-80
2023/07/13 06:56:03;;;;;;;5.73;3.10;;;18.40;99.90;;;;;;4994673;28;20226;-81
2023/07/13 06:58:30;;;;;;;8.87;3.27;;;18.40;99.90;;;;;;5017030;28;20232;-81
2023/07/13 07:00:57;;;;;;;7.20;2.97;;;18.50;99.90;;;;;;4994974;28;20236;-81
2023/07/13 07:03:25;;;;;;;7.27;3.70;;;18.60;99.90;;;;;;5013040;28;20312;-82
2023/07/13 07:05:52;;;;;;;6.70;2.73;;;18.70;99.90;;;;;;5011200;28;20229;-81
2023/07/13 07:08:18;;;;;;;7.60;3.40;;;18.80;99.90;;;;;;4999403;28;20222;-80
2023/07/13 07:10:46;;;;;;;8.23;2.90;;;18.90;99.90;;;;;;4997821;28;20222;-80
2023/07/13 07:13:13;;;;;;;6.93;2.50;;;19.00;99.90;;;;;;4997010;28;20222;-80
2023/07/13 07:15:39;;;;;;;10.45;3.22;;;19.10;99.90;;;;;;5014565;28;20229;-79
2023/07/13 07:18:06;;;;;;;8.40;2.88;;;19.20;99.90;;;;;;4999739;28;20214;-81
2023/07/13 07:20:35;;;;;;;8.23;2.80;;;19.20;99.90;;;;;;5014512;28;20233;-81
2023/07/13 07:23:01;;;;;;;9.07;3.10;;;19.30;99.90;;;;;;5005754;28;20218;-81
2023/07/13 07:25:31;;;;;;;8.57;2.90;;;19.30;99.90;;;;;;5005695;28;20305;-81
2023/07/13 07:27:58;;;;;;;10.65;2.88;;;19.40;99.90;;;;;;4997379;28;20229;-81
2023/07/13 07:30:25;;;;;;;9.02;2.88;;;19.50;99.90;;;;;;4998312;28;20229;-81
2023/07/13 07:32:51;;;;;;;5.35;2.65;;;19.60;99.90;;;;;;5001513;28;20332;-81
2023/07/13 07:35:18;;;;;;;7.95;2.70;;;19.80;99.90;;;;;;4999132;28;20300;-80
2023/07/13 07:37:46;;;;;;;5.82;2.45;;;20.10;99.90;;;;;;5000505;28;20228;-80
2023/07/13 07:40:13;;;;;;;7.45;2.90;;;20.40;99.90;;;;;;5004102;28;20232;-81
2023/07/13 07:42:39;;;;;;;6.00;2.50;;;20.70;99.90;;;;;;4998070;28;20239;-80
2023/07/13 07:45:07;;;;;;;8.13;2.60;;;21.10;99.90;;;;;;4998061;28;20237;-80
2023/07/13 07:47:34;;;;;;;6.18;2.25;;;21.40;99.90;;;;;;4999128;28;20231;-81
2023/07/13 07:50:00;;;;;;;9.00;2.63;;;21.80;99.90;;;;;;5001514;28;20233;-80
2023/07/13 07:52:27;;;;;;;7.57;2.55;;;22.10;99.90;;;;;;5005074;28;20228;-81
2023/07/13 07:54:55;;;;;;;8.07;2.28;;;22.40;99.90;;;;;;4999274;28;20699;-81
2023/07/13 07:57:22;;;;;;;5.32;2.15;;;22.60;99.90;;;;;;4998141;28;20228;-81
2023/07/13 07:59:49;;;;;;;7.15;2.33;;;22.90;99.90;;;;;;5024562;28;20221;-81
2023/07/13 08:02:15;;;;;;;6.63;2.00;;;23.20;99.90;;;;;;5023414;28;20220;-81
2023/07/13 08:04:43;;;;;;;6.38;2.03;;;23.40;99.90;;;;;;5034704;28;20725;-81
2023/07/13 08:07:10;;;;;;;6.68;2.08;;;23.60;99.90;;;;;;5002891;28;20221;-81
2023/07/13 08:09:37;;;;;;;5.68;2.22;;;23.60;99.90;;;;;;5017064;28;20329;-81
2023/07/13 08:12:06;;;;;;;10.45;2.78;;;23.60;99.90;;;;;;5006900;28;20229;-80
2023/07/13 08:14:33;;;;;;;5.47;2.05;;;23.60;99.90;;;;;;5006739;28;20289;-81
2023/07/13 08:17:00;;;;;;;5.95;1.90;;;23.50;99.90;;;;;;5017989;28;20221;-81
2023/07/13 08:19:26;;;;;;;6.00;2.40;;;23.40;99.90;;;;;;4999091;28;20226;-81
2023/07/13 08:21:53;;;;;;;8.43;2.50;;;23.30;99.90;;;;;;4999023;28;20221;-81
2023/07/13 08:24:23;;;;;;;6.15;2.35;;;23.40;99.90;;;;;;4999657;28;20231;-81
2023/07/13 08:26:49;;;;;;;6.30;2.35;;;23.40;99.90;;;;;;5020508;28;20221;-81
2023/07/13 08:29:17;;;;;;;6.30;2.35;;;23.60;99.90;;;;;;5026159;28;20235;-81
2023/07/13 08:31:44;;;;;;;6.78;2.30;;;23.80;99.90;;;;;;5016716;28;20296;-81
2023/07/13 08:34:11;;;;;;;6.43;2.40;;;23.80;99.90;;;;;;5004936;28;20854;-81
2023/07/13 08:36:38;;;;;;;9.30;2.72;;;23.80;99.90;;;;;;5022650;28;20225;-81
2023/07/13 08:39:04;;;;;;;7.53;2.30;;;23.80;99.90;;;;;;5002257;28;20229;-81
2023/07/13 08:41:31;;;;;;;7.30;2.35;;;23.90;99.90;;;;;;5003222;28;20239;-81
2023/07/13 08:44:01;;;;;;;7.05;2.05;;;24.10;99.90;;;;;;5012103;28;20252;-81
2023/07/13 08:46:35;;;;;;;6.30;1.75;;;24.30;99.90;;;;;;5028134;28;20323;-81
2023/07/13 08:49:05;;;;;;;5.57;2.10;;;24.60;99.90;;;;;;5001982;28;20730;-81
2023/07/13 08:51:39;;;;;;;5.07;1.88;;;25.00;99.80;;;;;;5000323;28;20623;-81
2023/07/13 08:54:17;;;;;;;5.82;2.13;;;25.30;99.70;;;;;;5014172;28;20897;-81
2023/07/13 08:56:46;;;;;;;8.32;2.22;;;25.70;98.80;;;;;;4996118;28;20247;-80
2023/07/13 08:59:18;;;;;;;6.20;2.10;;;25.90;98.50;;;;;;5006806;28;20725;-82
2023/07/13 09:02:02;;;;;;;4.93;1.90;;;26.00;98.50;;;;;;5017020;28;20236;-81
2023/07/13 09:04:35;;;;;;;4.63;2.00;;;26.20;97.20;;;;;;5017943;28;20236;-82
2023/07/13 09:07:07;;;;;;;4.32;1.83;;;26.40;97.60;;;;;;4999136;28;20236;-82
2023/07/13 09:09:46;;;;;;;9.25;2.30;;;26.60;97.50;;;;;;4996152;28;20225;-82
2023/07/13 09:12:18;;;;;;;5.20;1.90;;;26.90;96.40;;;;;;4995816;28;20232;-82
2023/07/13 09:14:49;;;;;;;6.72;2.13;;;27.00;93.10;;;;;;5013831;28;20312;-82
2023/07/13 09:17:21;;;;;;;5.85;1.85;;;27.10;95.30;;;;;;5029778;28;20232;-83
2023/07/13 09:20:02;;;;;;;5.05;2.08;;;27.10;94.60;;;;;;5000757;28;20221;-82
2023/07/13 09:22:30;;;;;;;7.68;2.50;;;27.10;94.80;;;;;;4986917;28;20232;-83
2023/07/13 09:25:05;;;;;;;4.85;2.22;;;26.90;94.60;;;;;;5012642;28;20325;-83
2023/07/13 09:27:39;;;;;;;5.85;2.00;;;26.50;94.00;;;;;;4996359;28;20307;-83
2023/07/13 09:30:25;;;;;;;3.90;1.70;;;26.20;94.20;;;;;;4995818;28;20239;-84
2023/07/13 09:32:54;;;;;;;3.03;1.35;;;25.90;94.70;;;;;;4995957;28;20318;-82
2023/07/13 09:35:26;;;;;;;5.07;1.90;;;25.70;95.00;;;;;;5014588;28;20225;-81
2023/07/13 09:37:58;;;;;;;7.75;1.80;;;25.80;95.10;;;;;;5017436;28;20229;-83
2023/07/13 09:40:33;;;;;;;3.58;1.77;;;26.10;95.40;;;;;;5004406;28;20233;-83
2023/07/13 09:43:01;;;;;;;6.32;1.70;;;26.30;95.10;;;;;;5016790;23;20224;-79
2023/07/13 09:45:30;;;;;;;3.30;1.90;;;26.50;95.30;;;;;;5021897;28;20283;-79
2023/07/13 09:48:05;;;;;;;4.07;1.70;;;26.80;94.40;;;;;;5008025;28;20231;-79
2023/07/13 09:50:32;;;;;;;4.70;1.65;;;27.00;93.10;;;;;;5025964;28;20220;-79
2023/07/13 09:53:01;;;;;;;4.35;1.98;;;27.30;93.70;;;;;;5027844;28;21937;-79
2023/07/13 09:55:32;;;;;;;4.68;1.90;;;27.60;93.10;;;;;;5024244;28;20988;-79
2023/07/13 09:58:04;;;;;;;4.25;1.60;;;27.90;91.30;;;;;;5024822;28;20221;-79
2023/07/13 10:00:31;;;;;;;4.38;1.67;;;28.10;91.20;;;;;;5026371;28;20311;-79
2023/07/13 10:03:05;;;;;;;3.45;1.70;;;28.10;90.20;;;;;;5027097;28;20236;-79
2023/07/13 10:05:40;;;;;;;8.35;1.80;;;28.10;90.40;;;;;;5021812;28;20235;-79
2023/07/13 10:08:07;;;;;;;5.90;1.83;;;28.20;87.00;;;;;;5027007;28;20224;-79
2023/07/13 10:10:35;;;;;;;4.22;1.80;;;28.20;89.50;;;;;;5026061;28;20251;-79
2023/07/13 10:13:04;;;;;;;3.15;1.95;;;28.10;89.70;;;;;;5002886;28;20217;-79
2023/07/13 10:15:31;;;;;;;3.85;1.83;;;27.90;90.30;;;;;;5008937;28;20256;-79
2023/07/13 10:17:58;;;;;;;5.20;1.75;;;27.70;89.50;;;;;;5025051;28;20221;-79
2023/07/13 10:20:27;;;;;;;4.85;2.20;;;27.50;90.00;;;;;;5007743;28;20232;-79
2023/07/13 10:22:59;;;;;;;5.63;2.10;;;27.30;89.00;;;;;;5025260;28;20422;-79
2023/07/13 10:25:30;;;;;;;6.32;2.05;;;27.20;89.20;;;;;;5026315;28;20229;-79
2023/07/13 10:28:03;;;;;;;4.35;1.67;;;27.10;89.40;;;;;;5025579;28;20219;-79
2023/07/13 10:30:33;;;;;;;3.40;1.70;;;27.00;88.40;;;;;;5023954;28;20235;-79
2023/07/13 10:33:04;;;;;;;7.82;2.22;;;26.80;89.50;;;;;;5021703;28;20233;-79
2023/07/13 10:35:33;;;;;;;3.88;1.67;;;26.70;88.00;;;;;;5025203;28;20620;-79
2023/07/13 10:38:06;;;;;;;5.57;1.67;;;26.50;87.60;;;;;;5024111;28;20299;-79
2023/07/13 10:40:37;;;;;;;3.88;1.73;;;26.40;89.10;;;;;;5024935;28;20667;-79
2023/07/13 10:43:14;;;;;;;3.92;1.77;;;26.40;88.50;;;;;;5020845;28;20224;-78
2023/07/13 10:45:42;;;;;;;3.25;1.70;;;26.40;88.40;;;;;;5024518;28;20246;-79
2023/07/13 10:48:13;;;;;;;6.35;2.05;;;26.50;88.90;;;;;;5008117;28;20228;-79
2023/07/13 10:50:45;;;;;;;4.25;1.80;;;26.80;88.70;;;;;;5025675;28;20221;-79
2023/07/13 10:53:20;;;;;;;5.28;2.05;;;27.00;86.40;;;;;;5006711;28;20220;-79
2023/07/13 10:56:00;;;;;;;3.10;1.70;;;27.30;85.70;;;;;;5025587;28;20224;-79
2023/07/13 10:58:32;;;;;;;4.10;1.75;;;27.60;84.90;;;;;;5006620;28;20223;-79
2023/07/13 11:01:07;;;;;;;3.35;1.65;;;27.70;83.10;;;;;;5008215;28;20229;-79
2023/07/13 11:03:36;;;;;;;4.00;1.55;;;27.90;83.10;;;;;;5023545;28;20232;-79
2023/07/13 11:06:11;;;;;;;4.78;1.83;;;28.00;83.30;;;;;;5025769;28;20225;-79
2023/07/13 11:08:51;;;;;;;3.55;1.80;;;28.00;80.80;;;;;;5020851;28;20246;-79
2023/07/13 11:11:38;;;;;;;4.82;1.65;;;28.10;81.90;;;;;;5020706;28;20300;-79
2023/07/13 11:14:26;;;;;;;7.05;1.88;;;28.20;78.80;;;;;;5004570;28;20212;-79
2023/07/13 11:16:53;;;;;;;3.85;1.77;;;28.30;79.00;;;;;;5017703;28;20224;-79
2023/07/13 11:19:40;;;;;;;4.13;1.60;;;28.50;78.80;;;;;;5024982;28;20683;-79
2023/07/13 11:22:42;;;;;;;4.82;1.63;;;28.70;78.10;;;;;;5022499;28;20255;-79
2023/07/13 11:25:28;;;;;;;2.95;1.45;;;28.90;76.50;;;;;;5017299;28;20381;-79
2023/07/13 11:28:17;;;;;;;3.28;1.23;;;29.10;74.90;;;;;;5022570;28;20225;-79
2023/07/13 11:30:47;;;;;;;3.38;1.58;;;29.20;77.10;;;;;;5022914;28;20227;-79
2023/07/13 11:33:20;;;;;;;3.17;1.60;;;29.40;74.70;;;;;;5004539;28;20792;-79
2023/07/13 11:35:54;;;;;;;3.83;1.60;;;29.60;72.60;;;;;;5021114;28;20231;-79
2023/07/13 11:38:24;;;;;;;2.80;1.50;;;29.80;72.80;;;;;;5005071;28;20243;-79
2023/07/13 11:40:54;;;;;;;2.72;1.50;;;29.90;71.10;;;;;;5021398;28;20303;-79
2023/07/13 11:43:23;;;;;;;4.22;1.80;;;30.00;70.20;;;;;;5022334;28;20229;-79
2023/07/13 11:45:50;;;;;;;4.47;1.70;;;30.10;70.80;;;;;;5024102;28;20217;-79
2023/07/13 11:48:25;;;;;;;2.78;1.58;;;30.10;71.50;;;;;;5006274;28;20231;-79
2023/07/13 11:50:59;;;;;;;3.65;1.58;;;30.20;67.60;;;;;;5020652;28;20679;-79
2023/07/13 11:53:31;;;;;;;3.25;1.65;;;30.30;67.80;;;;;;5006578;28;20224;-79
2023/07/13 11:55:59;;;;;;;3.03;1.55;;;30.20;67.90;;;;;;5005903;28;20247;-79
2023/07/13 11:58:28;;;;;;;3.58;1.60;;;30.20;67.90;;;;;;5022079;28;20720;-79
2023/07/13 12:00:58;;;;;;;5.22;1.40;;;30.00;65.80;;;;;;5003032;28;20644;-78
2023/07/13 12:03:26;;;;;;;3.58;1.80;;;29.80;66.20;;;;;;5020573;28;20248;-79
2023/07/13 12:06:01;;;;;;;3.63;1.55;;;29.60;65.90;;;;;;5020464;28;20223;-78
2023/07/13 12:08:29;;;;;;;3.15;1.30;;;29.40;66.70;;;;;;5020515;28;20714;-79
2023/07/13 12:11:04;;;;;;;3.35;1.67;;;29.10;66.40;;;;;;5024363;28;20231;-79
2023/07/13 12:13:37;;;;;;;4.30;1.60;;;28.90;66.60;;;;;;5022909;28;20341;-79
2023/07/13 12:16:12;;;;;;;3.42;1.70;;;28.60;66.50;;;;;;5023836;28;20259;-78
2023/07/13 12:18:39;;;;;;;4.53;1.40;;;28.30;66.30;;;;;;5020208;28;20219;-79
2023/07/13 12:21:13;;;;;;;3.28;1.50;;;28.10;68.10;;;;;;5024344;28;20316;-79
2023/07/13 12:23:45;;;;;;;3.55;1.65;;;27.80;69.00;;;;;;5021568;28;20252;-79
2023/07/13 12:26:13;;;;;;;2.45;1.15;;;27.50;69.50;;;;;;5021791;28;20231;-79
2023/07/13 12:28:45;;;;;;;2.80;1.40;;;27.20;70.00;;;;;;5021718;28;20605;-79
2023/07/13 12:31:25;;;;;;;5.80;1.58;;;26.90;70.80;;;;;;5021042;28;20224;-79
2023/07/13 12:33:58;;;;;;;7.22;2.17;;;26.40;72.00;;;;;;5005390;28;20614;-79
2023/07/13 12:36:27;;;;;;;35.17;5.80;;;25.90;81.10;;;;;;5023722;28;20230;-85
2023/07/13 12:38:55;;;;;;;7.85;2.38;;;25.20;85.30;;;;;;5005303;28;20229;-82
2023/07/13 12:41:23;;;;;;;16.88;2.95;;;24.30;94.40;;;;;;5007369;28;20232;-82
2023/07/13 12:43:50;;;;;;;10.05;2.72;;;23.30;98.30;;;;;;5024453;28;20223;-81
2023/07/13 12:46:20;;;;;;;6.28;2.08;;;22.20;99.90;;;;;;5023896;28;20225;-82
2023/07/13 12:48:52;;;;;;;9.75;2.65;;;21.10;99.90;;;;;;5007924;28;20351;-86
2023/07/13 12:51:24;;;;;;;6.13;2.37;;;20.10;99.90;;;;;;5008108;28;20217;-82
2023/07/13 12:53:57;;;;;;;7.47;2.60;;;19.30;99.90;;;;;;5008762;28;20707;-80
2023/07/13 12:56:27;;;;;;;7.03;2.50;;;18.80;99.90;;;;;;5034039;28;20318;-82